createdAt,value
2023-03-15T00:00:04.183Z,9.457334
2023-03-15T00:01:04.153Z,9.457410
2023-03-15T00:02:04.208Z,9.457393
2023-03-15T00:03:04.149Z,9.457171
2023-03-15T00:04:04.138Z,9.457189
2023-03-15T00:05:04.138Z,9.457142
2023-03-15T00:06:04.107Z,9.457323
2023-03-15T00:07:04.132Z,9.457348
2023-03-15T00:08:04.683Z,9.457313
2023-03-15T00:09:05.096Z,9.457406
2023-03-15T00:10:04.084Z,9.457354
2023-03-15T00:11:04.076Z,9.457349
2023-03-15T00:12:04.093Z,9.457275
2023-03-15T00:13:04.065Z,9.457216
2023-03-15T00:14:04.047Z,9.457335
2023-03-15T00:15:04.035Z,9.457281
2023-03-15T00:16:04.089Z,9.457261
2023-03-15T00:17:04.041Z,9.457310
2023-03-15T00:18:04.006Z,9.457288
2023-03-15T00:19:04.008Z,9.457162
2023-03-15T00:20:04.018Z,9.457142
2023-03-15T00:21:03.992Z,9.457144
2023-03-15T00:22:03.976Z,9.457255
2023-03-15T00:23:03.971Z,9.457410
2023-03-15T00:24:03.964Z,9.457533
2023-03-15T00:25:03.954Z,9.457461
2023-03-15T00:26:03.963Z,9.457547
2023-03-15T00:27:03.944Z,9.457438
2023-03-15T00:28:03.933Z,9.457278
2023-03-15T00:29:03.925Z,9.457249
2023-03-15T00:30:03.915Z,9.457401
2023-03-15T00:31:03.998Z,9.457329
2023-03-15T00:32:03.921Z,9.457406
2023-03-15T00:33:03.884Z,9.457273
2023-03-15T00:34:03.888Z,9.457350
2023-03-15T00:35:03.877Z,9.457282
2023-03-15T00:36:03.940Z,9.457369
2023-03-15T00:37:03.870Z,9.457368
2023-03-15T00:38:03.844Z,9.457410
2023-03-15T00:39:03.844Z,9.457323
2023-03-15T00:40:03.821Z,9.457236
2023-03-15T00:41:03.821Z,9.457266
2023-03-15T00:42:03.835Z,9.457472
2023-03-15T00:43:03.797Z,9.457627
2023-03-15T00:44:03.814Z,9.457551
2023-03-15T00:45:03.857Z,9.457404
2023-03-15T00:46:03.817Z,9.457296
2023-03-15T00:47:04.855Z,9.457291
2023-03-15T00:48:03.776Z,9.457204
2023-03-15T00:49:03.789Z,9.457197
2023-03-15T00:50:03.756Z,9.457324
2023-03-15T00:51:03.734Z,9.457254
2023-03-15T00:52:03.740Z,9.457368
2023-03-15T00:53:03.731Z,9.457381
2023-03-15T00:54:03.719Z,9.457516
2023-03-15T00:55:03.720Z,9.457333
2023-03-15T00:56:03.736Z,9.457335
2023-03-15T00:57:03.697Z,9.457282
2023-03-15T00:58:03.677Z,9.457224
2023-03-15T00:59:03.668Z,9.457262
2023-03-15T01:00:03.655Z,9.457269
2023-03-15T01:01:03.648Z,9.457164
2023-03-15T01:02:03.695Z,9.457194
2023-03-15T01:03:03.710Z,9.457148
2023-03-15T01:04:03.625Z,9.457249
2023-03-15T01:05:03.619Z,9.457219
2023-03-15T01:06:03.600Z,9.457268
2023-03-15T01:07:03.610Z,9.457089
2023-03-15T01:08:04.579Z,9.457185
2023-03-15T01:09:03.573Z,9.457450
2023-03-15T01:10:03.569Z,9.457282
2023-03-15T01:11:03.574Z,9.456958
2023-03-15T01:12:03.538Z,9.456653
2023-03-15T01:13:03.532Z,9.456660
2023-03-15T01:14:03.528Z,9.456964
2023-03-15T01:15:03.519Z,9.457191
2023-03-15T01:16:03.566Z,9.457205
2023-03-15T01:17:03.520Z,9.457085
2023-03-15T01:18:03.489Z,9.457273
2023-03-15T01:19:03.495Z,9.456838
2023-03-15T01:20:03.491Z,9.457069
2023-03-15T01:21:03.464Z,9.457043
2023-03-15T01:22:03.492Z,9.457398
2023-03-15T01:23:03.451Z,9.457341
2023-03-15T01:24:03.439Z,9.457251
2023-03-15T01:25:03.441Z,9.457253
2023-03-15T01:26:03.422Z,9.457190
2023-03-15T01:27:03.465Z,9.457176
2023-03-15T01:28:03.408Z,9.457211
2023-03-15T01:29:03.404Z,9.457462
2023-03-15T01:30:03.399Z,9.457452
2023-03-15T01:31:03.430Z,9.457401
2023-03-15T01:32:03.391Z,9.457645
2023-03-15T01:33:03.365Z,9.457293
2023-03-15T01:34:03.363Z,9.457453
2023-03-15T01:35:03.343Z,9.457480
2023-03-15T01:36:03.384Z,9.457435
2023-03-15T01:37:03.368Z,9.457443
2023-03-15T01:38:03.318Z,9.457536
2023-03-15T01:39:03.333Z,9.457451
2023-03-15T01:40:03.305Z,9.457332
2023-03-15T01:41:03.309Z,9.457302
2023-03-15T01:42:03.306Z,9.457240
2023-03-15T01:43:03.291Z,9.457332
2023-03-15T01:44:03.274Z,9.457488
2023-03-15T01:45:03.278Z,9.457396
2023-03-15T01:46:03.342Z,9.457343
2023-03-15T01:47:03.461Z,9.457330
2023-03-15T01:48:03.237Z,9.457336
2023-03-15T01:49:03.229Z,9.457196
2023-03-15T01:50:03.221Z,9.457353
2023-03-15T01:51:03.214Z,9.457304
2023-03-15T01:52:03.226Z,9.457316
2023-03-15T01:53:03.214Z,9.457407
2023-03-15T01:54:03.193Z,9.457347
2023-03-15T01:55:03.180Z,9.457241
2023-03-15T01:56:03.176Z,9.457453
2023-03-15T01:57:03.183Z,9.457383
2023-03-15T01:58:03.144Z,9.457248
2023-03-15T01:59:03.173Z,9.457286
2023-03-15T02:00:03.126Z,9.457516
2023-03-15T02:01:03.146Z,9.457502
2023-03-15T02:02:03.171Z,9.457424
2023-03-15T02:03:03.111Z,9.457497
2023-03-15T02:04:03.114Z,9.457314
2023-03-15T02:05:03.094Z,9.457299
2023-03-15T02:06:03.103Z,9.457327
2023-03-15T02:07:03.116Z,9.457259
2023-03-15T02:08:04.071Z,9.457261
2023-03-15T02:09:03.060Z,9.457355
2023-03-15T02:10:03.059Z,9.457163
2023-03-15T02:11:03.040Z,9.457161
2023-03-15T02:12:03.065Z,9.457252
2023-03-15T02:13:03.027Z,9.457217
2023-03-15T02:14:03.021Z,9.457176
2023-03-15T02:15:03.011Z,9.457068
2023-03-15T02:16:03.038Z,9.457212
2023-03-15T02:17:03.024Z,9.457135
2023-03-15T02:18:02.993Z,9.457102
2023-03-15T02:19:02.999Z,9.457103
2023-03-15T02:20:02.997Z,9.457206
2023-03-15T02:21:02.980Z,9.457249
2023-03-15T02:22:03.003Z,9.457306
2023-03-15T02:23:02.965Z,9.457325
2023-03-15T02:24:02.948Z,9.457379
2023-03-15T02:25:02.942Z,9.457219
2023-03-15T02:26:02.925Z,9.457262
2023-03-15T02:27:02.971Z,9.457271
2023-03-15T02:28:02.907Z,9.457378
2023-03-15T02:29:02.902Z,9.457365
2023-03-15T02:30:02.896Z,9.457254
2023-03-15T02:31:02.883Z,9.457189
2023-03-15T02:32:02.926Z,9.457123
2023-03-15T02:33:02.882Z,9.457029
2023-03-15T02:34:02.873Z,9.457154
2023-03-15T02:35:02.848Z,9.457034
2023-03-15T02:36:02.868Z,9.457273
2023-03-15T02:37:02.864Z,9.457307
2023-03-15T02:38:02.837Z,9.457371
2023-03-15T02:39:02.825Z,9.457273
2023-03-15T02:40:02.814Z,9.457110
2023-03-15T02:41:02.807Z,9.456959
2023-03-15T02:42:02.825Z,9.457030
2023-03-15T02:43:02.796Z,9.457043
2023-03-15T02:44:02.796Z,9.457106
2023-03-15T02:45:02.769Z,9.457094
2023-03-15T02:46:02.858Z,9.457067
2023-03-15T02:47:02.805Z,9.456953
2023-03-15T02:48:02.751Z,9.457110
2023-03-15T02:49:02.745Z,9.456739
2023-03-15T02:50:02.743Z,9.457135
2023-03-15T02:51:02.735Z,9.457076
2023-03-15T02:52:02.753Z,9.456948
2023-03-15T02:53:02.722Z,9.456897
2023-03-15T02:54:02.717Z,9.456987
2023-03-15T02:55:02.700Z,9.456857
2023-03-15T02:56:02.690Z,9.456931
2023-03-15T02:57:02.689Z,9.457029
2023-03-15T02:58:02.699Z,9.457198
2023-03-15T02:59:02.667Z,9.457184
2023-03-15T03:00:02.664Z,9.457298
2023-03-15T03:01:02.681Z,9.457217
2023-03-15T03:02:02.699Z,9.456712
2023-03-15T03:03:02.680Z,9.456630
2023-03-15T03:04:02.637Z,9.456542
2023-03-15T03:05:02.620Z,9.456864
2023-03-15T03:06:02.619Z,9.457201
2023-03-15T03:07:02.606Z,9.457288
2023-03-15T03:08:02.632Z,9.456900
2023-03-15T03:09:02.591Z,9.456854
2023-03-15T03:10:02.576Z,9.457017
2023-03-15T03:11:02.567Z,9.456935
2023-03-15T03:12:02.571Z,9.457156
2023-03-15T03:13:02.582Z,9.457337
2023-03-15T03:14:02.540Z,9.457184
2023-03-15T03:15:02.568Z,9.457376
2023-03-15T03:16:02.551Z,9.457540
2023-03-15T03:17:02.621Z,9.457304
2023-03-15T03:18:02.540Z,9.457228
2023-03-15T03:19:02.501Z,9.457067
2023-03-15T03:20:02.485Z,9.457124
2023-03-15T03:21:02.491Z,9.457135
2023-03-15T03:35:48.650Z,9.457621
2023-03-15T03:36:48.638Z,9.457431
2023-03-15T03:37:48.643Z,9.457398
2023-03-15T03:38:48.608Z,9.457398
2023-03-15T03:39:48.593Z,9.457398
2023-03-15T03:40:48.594Z,9.457472
2023-03-15T03:41:48.590Z,9.457366
2023-03-15T03:42:48.617Z,9.457284
2023-03-15T03:43:48.580Z,9.457346
2023-03-15T03:44:48.562Z,9.457622
2023-03-15T03:45:48.613Z,9.457428
2023-03-15T03:46:48.557Z,9.457601
2023-03-15T03:47:48.584Z,9.457463
2023-03-15T03:48:48.535Z,9.457476
2023-03-15T03:49:48.522Z,9.457479
2023-03-15T03:50:48.525Z,9.457500
2023-03-15T03:51:48.506Z,9.457345
2023-03-15T03:52:48.519Z,9.457288
2023-03-15T03:53:48.493Z,9.457229
2023-03-15T03:54:48.483Z,9.457221
2023-03-15T03:55:48.472Z,9.457397
2023-03-15T03:56:48.466Z,9.457509
2023-03-15T03:57:48.469Z,9.457504
2023-03-15T03:58:48.452Z,9.457580
2023-03-15T03:59:48.440Z,9.457728
2023-03-15T04:00:48.435Z,9.457510
2023-03-15T04:01:48.420Z,9.457538
2023-03-15T04:02:48.520Z,9.457473
2023-03-15T04:03:48.408Z,9.457498
2023-03-15T04:04:48.433Z,9.457633
2023-03-15T04:05:48.388Z,9.457397
2023-03-15T04:06:48.391Z,9.457248
2023-03-15T04:07:48.401Z,9.457298
2023-03-15T04:08:48.366Z,9.457299
2023-03-15T04:09:48.357Z,9.457407
2023-03-15T04:10:48.355Z,9.457543
2023-03-15T04:11:48.391Z,9.457357
2023-03-15T04:12:48.360Z,9.457215
2023-03-15T04:13:48.351Z,9.457260
2023-03-15T04:14:48.319Z,9.457235
2023-03-15T04:15:48.347Z,9.457086
2023-03-15T04:16:48.295Z,9.457303
2023-03-15T04:17:48.327Z,9.457434
2023-03-15T04:18:48.278Z,9.457341
2023-03-15T04:19:48.273Z,9.457309
2023-03-15T04:20:48.273Z,9.457318
2023-03-15T04:21:48.256Z,9.457280
2023-03-15T04:22:48.262Z,9.457157
2023-03-15T04:23:48.240Z,9.457037
2023-03-15T04:24:48.242Z,9.457010
2023-03-15T04:25:48.223Z,9.457061
2023-03-15T04:26:48.212Z,9.457132
2023-03-15T04:27:48.230Z,9.457200
2023-03-15T04:28:48.208Z,9.457297
2023-03-15T04:29:48.195Z,9.457360
2023-03-15T04:30:48.202Z,9.457018
2023-03-15T04:31:48.196Z,9.457115
2023-03-15T04:32:48.289Z,9.457309
2023-03-15T04:33:48.163Z,9.457210
2023-03-15T04:34:48.158Z,9.457242
2023-03-15T04:35:48.159Z,9.457334
2023-03-15T04:36:48.141Z,9.457339
2023-03-15T04:37:48.199Z,9.457235
2023-03-15T04:38:48.132Z,9.457208
2023-03-15T04:39:48.121Z,9.457355
2023-03-15T04:40:48.114Z,9.457235
2023-03-15T04:41:48.108Z,9.457273
2023-03-15T04:42:48.135Z,9.457352
2023-03-15T04:43:48.080Z,9.457412
2023-03-15T04:44:48.084Z,9.457369
2023-03-15T04:45:48.080Z,9.457334
2023-03-15T04:46:48.091Z,9.457278
2023-03-15T04:47:48.079Z,9.457254
2023-03-15T04:48:48.050Z,9.457228
2023-03-15T04:49:48.065Z,9.457327
2023-03-15T04:50:48.036Z,9.457281
2023-03-15T04:51:48.025Z,9.457207
2023-03-15T04:52:48.065Z,9.457273
2023-03-15T04:53:47.999Z,9.457224
2023-03-15T04:54:47.985Z,9.457279
2023-03-15T04:55:47.985Z,9.457303
2023-03-15T04:56:47.982Z,9.457406
2023-03-15T04:57:48.020Z,9.457269
2023-03-15T04:58:47.957Z,9.457190
2023-03-15T04:59:47.951Z,9.457266
2023-03-15T05:00:48.009Z,9.457237
2023-03-15T05:01:48.043Z,9.457232
2023-03-15T05:02:47.946Z,9.457150
2023-03-15T05:03:47.915Z,9.457167
2023-03-15T05:04:47.924Z,9.457216
2023-03-15T05:05:47.910Z,9.457267
2023-03-15T05:06:47.906Z,9.457280
2023-03-15T05:07:47.908Z,9.457324
2023-03-15T05:08:47.886Z,9.457370
2023-03-15T05:09:47.872Z,9.457288
2023-03-15T05:10:47.858Z,9.457201
2023-03-15T05:11:47.853Z,9.457234
2023-03-15T05:12:47.869Z,9.457197
2023-03-15T05:13:48.836Z,9.457364
2023-03-15T05:14:47.872Z,9.457342
2023-03-15T05:15:47.815Z,9.457259
2023-03-15T05:16:47.807Z,9.457323
2023-03-15T05:17:47.817Z,9.457222
2023-03-15T05:18:47.794Z,9.457174
2023-03-15T05:19:47.788Z,9.457230
2023-03-15T05:20:47.792Z,9.457245
2023-03-15T05:21:47.756Z,9.457266
2023-03-15T05:22:47.772Z,9.457302
2023-03-15T05:23:47.750Z,9.457345
2023-03-15T05:24:47.744Z,9.457179
2023-03-15T05:25:47.729Z,9.457284
2023-03-15T05:26:47.728Z,9.457066
2023-03-15T05:27:47.739Z,9.457082
2023-03-15T05:28:47.715Z,9.457126
2023-03-15T05:29:47.706Z,9.457437
2023-03-15T05:30:47.700Z,9.457261
2023-03-15T05:31:47.754Z,9.457285
2023-03-15T05:32:47.780Z,9.457340
2023-03-15T05:33:47.658Z,9.457355
2023-03-15T05:34:47.683Z,9.457396
2023-03-15T05:35:47.689Z,9.457156
2023-03-15T05:36:47.650Z,9.457163
2023-03-15T05:37:47.646Z,9.457285
2023-03-15T05:38:47.645Z,9.457351
2023-03-15T05:39:47.616Z,9.456918
2023-03-15T05:40:47.618Z,9.456851
2023-03-15T05:41:47.616Z,9.457335
2023-03-15T05:42:47.599Z,9.457419
2023-03-15T05:43:47.611Z,9.457545
2023-03-15T05:44:47.578Z,9.457396
2023-03-15T05:45:47.604Z,9.457195
2023-03-15T05:46:47.563Z,9.456964
2023-03-15T05:47:47.545Z,9.457227
2023-03-15T05:48:47.567Z,9.457329
2023-03-15T05:49:47.545Z,9.457416
2023-03-15T05:50:47.560Z,9.457481
2023-03-15T05:51:47.520Z,9.457442
2023-03-15T05:52:47.526Z,9.457330
2023-03-15T05:53:47.577Z,9.457393
2023-03-15T05:54:47.507Z,9.457174
2023-03-15T05:55:47.495Z,9.457054
2023-03-15T05:56:47.478Z,9.457157
2023-03-15T05:57:47.472Z,9.457397
2023-03-15T05:58:47.474Z,9.457232
2023-03-15T05:59:47.457Z,9.457288
2023-03-15T06:00:47.446Z,9.457401
2023-03-15T06:01:47.433Z,9.457372
2023-03-15T06:02:47.424Z,9.457456
2023-03-15T06:03:47.589Z,9.457372
2023-03-15T06:04:47.403Z,9.457243
2023-03-15T06:05:47.407Z,9.457285
2023-03-15T06:06:47.400Z,9.457488
2023-03-15T06:07:47.382Z,9.457383
2023-03-15T06:08:47.427Z,9.457663
2023-03-15T06:09:47.376Z,9.457695
2023-03-15T06:10:47.372Z,9.457509
2023-03-15T06:11:47.358Z,9.457428
2023-03-15T06:12:48.381Z,9.457466
2023-03-15T06:13:47.362Z,9.457401
2023-03-15T06:14:47.340Z,9.457316
2023-03-15T06:15:47.324Z,9.457390
2023-03-15T06:16:47.380Z,9.457365
2023-03-15T06:17:47.308Z,9.457562
2023-03-15T06:18:47.303Z,9.457852
2023-03-15T06:19:47.284Z,9.457700
2023-03-15T06:20:47.272Z,9.457408
2023-03-15T06:21:47.356Z,9.457139
2023-03-15T06:22:47.272Z,9.457237
2023-03-15T06:23:47.284Z,9.457321
2023-03-15T06:24:47.252Z,9.457315
2023-03-15T06:25:47.229Z,9.457276
2023-03-15T06:26:47.215Z,9.457332
2023-03-15T06:27:47.220Z,9.457220
2023-03-15T06:28:47.224Z,9.457378
2023-03-15T06:29:47.215Z,9.457233
2023-03-15T06:30:47.218Z,9.457206
2023-03-15T06:31:47.193Z,9.457236
2023-03-15T06:32:47.253Z,9.457182
2023-03-15T06:33:47.192Z,9.457293
2023-03-15T06:34:47.149Z,9.457237
2023-03-15T06:35:47.281Z,9.457252
2023-03-15T06:36:47.138Z,9.457279
2023-03-15T06:37:47.136Z,9.457301
2023-03-15T06:38:47.153Z,9.457355
2023-03-15T06:39:47.110Z,9.457295
2023-03-15T06:40:47.105Z,9.457308
2023-03-15T06:41:47.105Z,9.457299
2023-03-15T06:42:47.090Z,9.457256
2023-03-15T06:43:47.112Z,9.457207
2023-03-15T06:44:47.070Z,9.457169
2023-03-15T06:45:47.105Z,9.457157
2023-03-15T06:46:47.057Z,9.457255
2023-03-15T06:47:47.070Z,9.457191
2023-03-15T06:48:47.069Z,9.457142
2023-03-15T06:49:47.028Z,9.457134
2023-03-15T06:50:47.967Z,9.457174
2023-03-15T06:51:48.012Z,9.457274
2023-03-15T06:52:47.003Z,9.457233
2023-03-15T06:53:47.032Z,9.457258
2023-03-15T06:54:46.983Z,9.457253
2023-03-15T06:55:46.966Z,9.457307
2023-03-15T06:56:46.972Z,9.457310
2023-03-15T06:57:46.960Z,9.457319
2023-03-15T06:58:47.023Z,9.457210
2023-03-15T06:59:46.937Z,9.457218
2023-03-15T07:00:46.933Z,9.457222
2023-03-15T07:01:46.941Z,9.457281
2023-03-15T07:02:46.985Z,9.457324
2023-03-15T07:03:46.926Z,9.457172
2023-03-15T07:04:46.902Z,9.457283
2023-03-15T07:05:46.904Z,9.457186
2023-03-15T07:06:46.884Z,9.457216
2023-03-15T07:07:46.873Z,9.457162
2023-03-15T07:08:46.889Z,9.457255
2023-03-15T07:09:46.856Z,9.457277
2023-03-15T07:10:46.854Z,9.457234
2023-03-15T07:11:46.852Z,9.457275
2023-03-15T07:12:46.830Z,9.457238
2023-03-15T07:13:46.859Z,9.457329
2023-03-15T07:14:46.830Z,9.457309
2023-03-15T07:15:46.804Z,9.457187
2023-03-15T07:16:46.818Z,9.457196
2023-03-15T07:17:46.783Z,9.457219
2023-03-15T07:18:47.842Z,9.457230
2023-03-15T07:19:55.707Z,9.457315
2023-03-15T07:20:48.753Z,9.457232
2023-03-15T07:21:46.750Z,9.457104
2023-03-15T07:22:46.736Z,9.457022
2023-03-15T07:23:46.789Z,9.457083
2023-03-15T07:24:46.718Z,9.457243
2023-03-15T07:25:54.707Z,9.457268
2023-03-15T07:26:48.702Z,9.457205
2023-03-15T07:27:46.694Z,9.457211
2023-03-15T07:29:14.364Z,9.457244
2023-03-15T07:29:46.671Z,9.457237
2023-03-15T07:30:46.660Z,9.457156
2023-03-15T07:31:46.653Z,9.457093
2023-03-15T07:32:46.759Z,9.457117
2023-03-15T07:33:46.646Z,9.457188
2023-03-15T07:34:46.612Z,9.457220
2023-03-15T07:35:46.646Z,9.457248
2023-03-15T07:36:46.594Z,9.457258
2023-03-15T07:37:46.595Z,9.457328
2023-03-15T07:38:46.617Z,9.457321
2023-03-15T07:39:46.577Z,9.457281
2023-03-15T07:40:46.555Z,9.457223
2023-03-15T07:41:46.561Z,9.457203
2023-03-15T07:42:46.540Z,9.457186
2023-03-15T07:43:46.552Z,9.457228
2023-03-15T07:44:46.519Z,9.457354
2023-03-15T07:45:46.511Z,9.457232
2023-03-15T07:46:46.524Z,9.457262
2023-03-15T07:47:46.506Z,9.457361
2023-03-15T07:48:46.514Z,9.457205
2023-03-15T07:49:46.469Z,9.457362
2023-03-15T07:50:46.506Z,9.457300
2023-03-15T07:51:46.445Z,9.457294
2023-03-15T07:52:46.438Z,9.457170
2023-03-15T07:53:46.448Z,9.457255
2023-03-15T07:54:46.412Z,9.457273
2023-03-15T07:55:46.401Z,9.457419
2023-03-15T07:56:46.383Z,9.457298
2023-03-15T07:57:47.748Z,9.457426
2023-03-15T07:58:46.395Z,9.457404
2023-03-15T07:59:46.359Z,9.457309
2023-03-15T08:00:46.347Z,9.457347
2023-03-15T08:01:46.385Z,9.457413
2023-03-15T08:02:46.361Z,9.457263
2023-03-15T08:03:46.334Z,9.457258
2023-03-15T08:04:46.311Z,9.457348
2023-03-15T08:05:46.292Z,9.457490
2023-03-15T08:06:46.272Z,9.457457
2023-03-15T08:07:46.271Z,9.457472
2023-03-15T08:08:46.277Z,9.457376
2023-03-15T08:09:46.251Z,9.457467
2023-03-15T08:10:46.234Z,9.457408
2023-03-15T08:11:46.254Z,9.457356
2023-03-15T08:12:46.220Z,9.457286
2023-03-15T08:13:46.230Z,9.457302
2023-03-15T08:14:46.199Z,9.457388
2023-03-15T08:15:46.251Z,9.457394
2023-03-15T08:16:46.270Z,9.457394
2023-03-15T08:17:46.169Z,9.457282
2023-03-15T08:18:47.171Z,9.457343
2023-03-15T08:19:46.139Z,9.457404
2023-03-15T08:20:46.136Z,9.457294
2023-03-15T08:21:46.153Z,9.457267
2023-03-15T08:22:46.116Z,9.457234
2023-03-15T08:23:46.119Z,9.457155
2023-03-15T08:24:46.095Z,9.457294
2023-03-15T08:25:46.087Z,9.457395
2023-03-15T08:26:46.077Z,9.457413
2023-03-15T08:27:46.053Z,9.457451
2023-03-15T08:28:46.058Z,9.457422
2023-03-15T08:29:46.049Z,9.457887
2023-03-15T08:30:46.015Z,9.457603
2023-03-15T08:31:46.089Z,9.457520
2023-03-15T08:32:46.077Z,9.457378
2023-03-15T08:33:46.076Z,9.457393
2023-03-15T08:34:45.976Z,9.457468
2023-03-15T08:35:46.018Z,9.457456
2023-03-15T08:36:47.021Z,9.457530
2023-03-15T08:37:45.943Z,9.457584
2023-03-15T08:38:45.989Z,9.457792
2023-03-15T08:39:45.910Z,9.457445
2023-03-15T08:40:46.923Z,9.457522
2023-03-15T08:41:45.914Z,9.457685
2023-03-15T08:42:45.886Z,9.457378
2023-03-15T08:43:45.873Z,9.457417
2023-03-15T08:44:45.888Z,9.457331
2023-03-15T08:46:00.163Z,9.457597
2023-03-15T08:46:47.951Z,9.457465
2023-03-15T08:47:45.816Z,9.457568
2023-03-15T08:48:45.806Z,9.457372
2023-03-15T08:49:45.820Z,9.457513
2023-03-15T08:50:45.793Z,9.457316
2023-03-15T08:51:45.776Z,9.457317
2023-03-15T08:52:45.765Z,9.457374
2023-03-15T08:53:45.754Z,9.457370
2023-03-15T08:54:45.788Z,9.457360
2023-03-15T08:55:45.724Z,9.457453
2023-03-15T08:56:45.714Z,9.457597
2023-03-15T08:57:45.721Z,9.457505
2023-03-15T08:58:45.691Z,9.457345
2023-03-15T08:59:45.706Z,9.457457
2023-03-15T09:00:45.669Z,9.457519
2023-03-15T09:01:45.674Z,9.457578
2023-03-15T09:02:45.717Z,9.457264
2023-03-15T09:03:45.646Z,9.457241
2023-03-15T09:04:45.687Z,9.457212
2023-03-15T09:05:45.637Z,9.457207
2023-03-15T09:06:45.624Z,9.457098
2023-03-15T09:07:45.632Z,9.457246
2023-03-15T09:08:45.603Z,9.457263
2023-03-15T09:09:45.633Z,9.457257
2023-03-15T09:10:45.578Z,9.457241
2023-03-15T09:11:45.571Z,9.457217
2023-03-15T09:12:45.556Z,9.457038
2023-03-15T09:13:45.549Z,9.457139
2023-03-15T09:14:45.557Z,9.457129
2023-03-15T09:15:45.527Z,9.457312
2023-03-15T09:16:45.600Z,9.457175
2023-03-15T09:17:45.519Z,9.457454
2023-03-15T09:18:45.526Z,9.457535
2023-03-15T09:19:45.513Z,9.457753
2023-03-15T09:20:45.515Z,9.457435
2023-03-15T09:21:45.500Z,9.457561
2023-03-15T09:22:45.512Z,9.457317
2023-03-15T09:23:45.466Z,9.457278
2023-03-15T09:24:45.463Z,9.457326
2023-03-15T09:25:45.470Z,9.457432
2023-03-15T09:26:45.537Z,9.457188
2023-03-15T09:27:45.416Z,9.457309
2023-03-15T09:28:45.422Z,9.457208
2023-03-15T09:29:45.431Z,9.457129
2023-03-15T09:30:45.475Z,9.457261
2023-03-15T09:31:45.364Z,9.457404
2023-03-15T09:32:45.379Z,9.457278
2023-03-15T09:33:45.338Z,9.457254
2023-03-15T09:34:45.355Z,9.457147
2023-03-15T09:35:45.371Z,9.457321
2023-03-15T09:36:46.805Z,9.457278
2023-03-15T09:37:45.360Z,9.457223
2023-03-15T09:38:45.291Z,9.457187
2023-03-15T09:39:45.302Z,9.457253
2023-03-15T09:40:45.282Z,9.457289
2023-03-15T09:41:45.259Z,9.457203
2023-03-15T09:42:45.245Z,9.457158
2023-03-15T09:43:45.238Z,9.457134
2023-03-15T09:44:45.239Z,9.457260
2023-03-15T09:45:45.214Z,9.457177
2023-03-15T09:46:45.274Z,9.457224
2023-03-15T09:47:45.314Z,9.457305
2023-03-15T09:48:45.181Z,9.457191
2023-03-15T09:49:45.186Z,9.457152
2023-03-15T09:50:45.159Z,9.457191
2023-03-15T09:51:45.149Z,9.457429
2023-03-15T09:52:45.133Z,9.457384
2023-03-15T09:53:45.117Z,9.457381
2023-03-15T09:54:45.128Z,9.457273
2023-03-15T09:55:45.098Z,9.457300
2023-03-15T09:56:45.095Z,9.457360
2023-03-15T09:57:45.114Z,9.457214
2023-03-15T09:58:45.068Z,9.457156
2023-03-15T09:59:45.070Z,9.457137
2023-03-15T10:00:45.049Z,9.457178
2023-03-15T10:01:45.110Z,9.457133
2023-03-15T10:02:45.027Z,9.457104
2023-03-15T10:03:45.079Z,9.457213
2023-03-15T10:04:45.017Z,9.457339
2023-03-15T10:05:44.986Z,9.457110
2023-03-15T10:06:44.981Z,9.457108
2023-03-15T10:07:44.964Z,9.457173
2023-03-15T10:08:44.958Z,9.457093
2023-03-15T10:09:44.971Z,9.457103
2023-03-15T10:10:44.932Z,9.457056
2023-03-15T10:11:44.924Z,9.457120
2023-03-15T10:12:44.909Z,9.457173
2023-03-15T10:13:44.890Z,9.456916
2023-03-15T10:14:44.912Z,9.457076
2023-03-15T10:15:44.951Z,9.457470
2023-03-15T10:16:44.866Z,9.456982
2023-03-15T10:17:44.850Z,9.456952
2023-03-15T10:18:44.848Z,9.457000
2023-03-15T10:19:44.871Z,9.456918
2023-03-15T10:20:44.817Z,9.457077
2023-03-15T10:21:44.801Z,9.457210
2023-03-15T10:22:44.827Z,9.457083
2023-03-15T10:23:44.796Z,9.457149
2023-03-15T10:24:44.809Z,9.456971
2023-03-15T10:25:44.786Z,9.457077
2023-03-15T10:27:44.862Z,9.457225
2023-03-15T10:28:44.727Z,9.457205
2023-03-15T10:29:44.738Z,9.457256
2023-03-15T10:30:44.707Z,9.457194
2023-03-15T10:31:45.193Z,9.457247
2023-03-15T10:32:45.701Z,9.457330
2023-03-15T10:33:44.670Z,9.457335
2023-03-15T10:34:45.588Z,9.457264
2023-03-15T10:35:44.673Z,9.457213
2023-03-15T10:36:44.645Z,9.457161
2023-03-15T10:37:44.637Z,9.457295
2023-03-15T10:38:44.617Z,9.457310
2023-03-15T10:39:44.607Z,9.457219
2023-03-15T10:40:44.584Z,9.457096
2023-03-15T10:41:44.590Z,9.457231
2023-03-15T10:42:44.586Z,9.457213
2023-03-15T10:43:44.554Z,9.457267
2023-03-15T10:44:44.549Z,9.457251
2023-03-15T10:45:44.534Z,9.457235
2023-03-15T10:46:44.533Z,9.457123
2023-03-15T10:47:50.470Z,9.457048
2023-03-15T10:48:46.510Z,9.457180
2023-03-15T10:49:44.590Z,9.457096
2023-03-15T10:50:44.479Z,9.457194
2023-03-15T10:51:44.462Z,9.457234
2023-03-15T10:52:44.450Z,9.457098
2023-03-15T10:53:44.470Z,9.457185
2023-03-15T10:54:45.008Z,9.457141
2023-03-15T10:55:44.438Z,9.457111
2023-03-15T10:56:44.409Z,9.457075
2023-03-15T10:57:44.402Z,9.457172
2023-03-15T10:58:44.386Z,9.457296
2023-03-15T10:59:44.418Z,9.457095
2023-03-15T11:00:44.400Z,9.457092
2023-03-15T11:01:44.407Z,9.457046
2023-03-15T11:02:44.416Z,9.457064
2023-03-15T11:03:44.330Z,9.457289
2023-03-15T11:04:45.333Z,9.457290
2023-03-15T11:05:44.336Z,9.457361
2023-03-15T11:06:44.304Z,9.457216
2023-03-15T11:07:44.298Z,9.457306
2023-03-15T11:08:44.291Z,9.457182
2023-03-15T11:09:44.283Z,9.457226
2023-03-15T11:10:44.264Z,9.457150
2023-03-15T11:11:44.249Z,9.456995
2023-03-15T11:12:44.232Z,9.457112
2023-03-15T11:13:44.215Z,9.457404
2023-03-15T11:14:44.235Z,9.457468
2023-03-15T11:15:44.201Z,9.457486
2023-03-15T11:16:44.194Z,9.457289
2023-03-15T11:17:44.188Z,9.457401
2023-03-15T11:18:44.170Z,9.457346
2023-03-15T11:19:44.176Z,9.457306
2023-03-15T11:20:44.143Z,9.457459
2023-03-15T11:21:44.139Z,9.457310
2023-03-15T11:22:44.131Z,9.457016
2023-03-15T11:23:44.104Z,9.456974
2023-03-15T11:24:44.196Z,9.457199
2023-03-15T11:25:44.102Z,9.457320
2023-03-15T11:26:44.085Z,9.457316
2023-03-15T11:27:44.091Z,9.457385
2023-03-15T11:28:44.063Z,9.457541
2023-03-15T11:29:44.081Z,9.457441
2023-03-15T11:30:44.043Z,9.457419
2023-03-15T11:31:44.064Z,9.457548
2023-03-15T11:32:44.058Z,9.457831
2023-03-15T11:33:44.012Z,9.457745
2023-03-15T11:34:44.009Z,9.457262
2023-03-15T11:35:44.018Z,9.457289
2023-03-15T11:36:43.971Z,9.457482
2023-03-15T11:37:43.970Z,9.457348
2023-03-15T11:38:43.992Z,9.457088
2023-03-15T11:39:43.960Z,9.457263
2023-03-15T11:40:44.928Z,9.457216
2023-03-15T11:41:43.922Z,9.457263
2023-03-15T11:42:43.905Z,9.457265
2023-03-15T11:43:43.902Z,9.457219
2023-03-15T11:44:43.911Z,9.457260
2023-03-15T11:45:43.882Z,9.457425
2023-03-15T11:46:43.863Z,9.457411
2023-03-15T11:47:43.862Z,9.457264
2023-03-15T11:48:43.853Z,9.457222
2023-03-15T11:49:43.869Z,9.457134
2023-03-15T11:50:43.824Z,9.457201
2023-03-15T11:51:43.823Z,9.457212
2023-03-15T11:52:43.801Z,9.457171
2023-03-15T11:53:43.807Z,9.457186
2023-03-15T11:54:43.785Z,9.457167
2023-03-15T11:55:43.798Z,9.457055
2023-03-15T11:56:43.761Z,9.457035
2023-03-15T11:57:43.757Z,9.457292
2023-03-15T11:58:43.724Z,9.457220